createdAt,value
2023-02-05T00:00:18.358Z,5.07
2023-02-05T00:02:46.294Z,4.90
2023-02-05T00:05:15.697Z,5.18
2023-02-05T00:07:43.700Z,4.65
2023-02-05T00:10:11.808Z,4.57
2023-02-05T00:12:39.764Z,4.60
2023-02-05T00:15:08.689Z,4.78
2023-02-05T00:17:37.079Z,4.97
2023-02-05T00:20:05.985Z,5.80
2023-02-05T00:22:35.249Z,5.32
2023-02-05T00:25:03.155Z,5.65
2023-02-05T00:27:31.112Z,5.85
2023-02-05T00:29:59.027Z,5.80
2023-02-05T00:32:26.964Z,6.07
2023-02-05T00:34:54.991Z,5.82
2023-02-05T00:37:22.913Z,6.20
2023-02-05T00:39:52.252Z,6.45
2023-02-05T00:42:20.221Z,5.07
2023-02-05T00:44:48.112Z,5.93
2023-02-05T00:47:16.008Z,5.63
2023-02-05T00:49:44.021Z,5.80
2023-02-05T00:52:11.852Z,5.45
2023-02-05T00:54:39.810Z,5.93
2023-02-05T00:57:09.035Z,5.95
2023-02-05T00:59:37.047Z,6.30
2023-02-05T01:02:05.159Z,6.00
2023-02-05T01:04:33.139Z,6.35
2023-02-05T01:07:01.251Z,6.45
2023-02-05T01:09:29.232Z,6.43
2023-02-05T01:11:57.120Z,7.15
2023-02-05T01:14:26.471Z,5.90
2023-02-05T01:16:54.404Z,6.03
2023-02-05T01:19:22.361Z,7.13
2023-02-05T01:21:53.066Z,7.35
2023-02-05T01:24:20.947Z,6.03
2023-02-05T01:26:49.265Z,7.72
2023-02-05T01:29:17.192Z,7.70
2023-02-05T01:31:46.594Z,7.53
2023-02-05T01:34:14.692Z,6.70
2023-02-05T01:36:42.633Z,7.15
2023-02-05T01:39:10.789Z,7.28
2023-02-05T01:41:41.881Z,7.53
2023-02-05T01:44:24.368Z,7.05
2023-02-05T01:46:55.113Z,7.55
2023-02-05T01:49:29.125Z,6.72
2023-02-05T01:52:00.564Z,6.78
2023-02-05T01:54:32.140Z,6.90
2023-02-05T01:57:04.357Z,7.30
2023-02-05T01:59:34.902Z,5.63
2023-02-05T02:02:06.439Z,5.97
2023-02-05T02:04:40.093Z,4.53
2023-02-05T02:07:09.946Z,5.93
2023-02-05T02:09:38.245Z,5.78
2023-02-05T02:12:06.792Z,6.25
2023-02-05T02:14:38.878Z,6.03
2023-02-05T02:17:10.048Z,5.82
2023-02-05T02:19:45.320Z,5.00
2023-02-05T02:22:35.346Z,5.40
2023-02-05T02:25:39.102Z,5.25
2023-02-05T02:28:12.790Z,5.25
2023-02-05T02:30:44.684Z,5.43
2023-02-05T02:33:19.606Z,4.05
2023-02-05T02:35:53.038Z,4.85
2023-02-05T02:38:28.250Z,5.07
2023-02-05T02:41:00.904Z,5.55
2023-02-05T02:43:33.644Z,5.45
2023-02-05T02:46:06.120Z,6.00
2023-02-05T02:51:06.878Z,5.45
2023-02-05T02:53:39.260Z,5.65
2023-02-05T02:56:08.951Z,5.78
2023-02-05T02:58:43.322Z,5.25
2023-02-05T03:01:12.692Z,5.25
2023-02-05T03:03:46.100Z,5.70
2023-02-05T03:06:15.658Z,6.03
2023-02-05T03:08:56.297Z,5.50
2023-02-05T03:11:26.234Z,5.28
2023-02-05T03:13:56.607Z,5.03
2023-02-05T03:16:27.734Z,5.72
2023-02-05T03:21:46.561Z,5.30
2023-02-05T03:24:14.545Z,6.15
2023-02-05T03:26:43.126Z,7.68
2023-02-05T03:29:16.581Z,8.57
2023-02-05T03:31:58.109Z,6.93
2023-02-05T03:34:38.511Z,6.35
2023-02-05T03:37:14.687Z,4.35
2023-02-05T03:39:53.376Z,3.55
2023-02-05T03:42:37.579Z,4.30
2023-02-05T03:45:27.749Z,3.83
2023-02-05T03:48:17.198Z,3.83
2023-02-05T03:50:57.721Z,3.97
2023-02-05T03:53:33.361Z,3.60
2023-02-05T03:56:06.179Z,3.60
2023-02-05T03:58:39.453Z,3.45
2023-02-05T04:01:09.928Z,3.53
2023-02-05T04:03:38.329Z,4.03
2023-02-05T04:06:08.376Z,3.50
2023-02-05T04:08:36.520Z,4.15
2023-02-05T04:11:04.922Z,3.55
2023-02-05T04:13:32.915Z,3.78
2023-02-05T04:16:01.083Z,4.32
2023-02-05T04:18:30.460Z,4.22
2023-02-05T04:21:00.445Z,3.75
2023-02-05T04:23:28.437Z,4.35
2023-02-05T04:25:56.839Z,5.05
2023-02-05T04:28:24.815Z,3.70
2023-02-05T04:30:52.997Z,3.50
2023-02-05T04:33:20.992Z,4.15
2023-02-05T04:35:50.304Z,4.03
2023-02-05T04:38:18.269Z,4.03
2023-02-05T04:40:47.058Z,4.65
2023-02-05T04:43:15.145Z,4.85
2023-02-05T04:45:43.083Z,3.83
2023-02-05T04:48:11.029Z,3.85
2023-02-05T04:50:39.364Z,4.30
2023-02-05T04:53:10.188Z,4.15
2023-02-05T04:55:38.399Z,4.53
2023-02-05T04:58:06.431Z,4.45
2023-02-05T05:00:34.412Z,4.65
2023-02-05T05:03:02.628Z,4.72
2023-02-05T05:05:33.535Z,3.92
2023-02-05T05:08:01.688Z,3.65
2023-02-05T05:10:31.024Z,4.40
2023-02-05T05:13:00.166Z,3.85
2023-02-05T05:15:28.160Z,4.13
2023-02-05T05:17:56.079Z,5.00
2023-02-05T05:20:24.112Z,3.95
2023-02-05T05:22:51.990Z,4.43
2023-02-05T05:25:19.906Z,4.38
2023-02-05T05:27:49.247Z,4.65
2023-02-05T05:30:19.124Z,4.30
2023-02-05T05:32:47.063Z,4.20
2023-02-05T05:35:15.243Z,4.85
2023-02-05T05:37:43.311Z,4.57
2023-02-05T05:40:31.170Z,4.82
2023-02-05T05:43:18.147Z,4.43
2023-02-05T05:45:46.131Z,4.63
2023-02-05T05:48:15.854Z,4.65
2023-02-05T05:50:46.610Z,4.20
2023-02-05T05:53:14.557Z,4.32
2023-02-05T05:55:43.345Z,4.55
2023-02-05T05:58:12.992Z,5.68
2023-02-05T06:00:42.025Z,4.97
2023-02-05T06:03:13.826Z,5.25
2023-02-05T06:05:41.783Z,5.60
2023-02-05T06:08:09.680Z,4.85
2023-02-05T06:10:37.633Z,5.18
2023-02-05T06:13:08.171Z,5.30
2023-02-05T06:15:37.829Z,5.90
2023-02-05T06:18:06.000Z,5.07
2023-02-05T06:20:36.101Z,5.22
2023-02-05T06:23:07.768Z,5.00
2023-02-05T06:25:36.252Z,5.85
2023-02-05T06:28:07.609Z,5.80
2023-02-05T06:30:37.124Z,5.53
2023-02-05T06:33:07.030Z,5.85
2023-02-05T06:35:35.206Z,5.53
2023-02-05T06:38:03.368Z,5.95
2023-02-05T06:40:31.302Z,6.00
2023-02-05T06:42:59.424Z,6.68
2023-02-05T06:45:27.305Z,6.43
2023-02-05T06:47:57.648Z,5.75
2023-02-05T06:50:26.290Z,6.72
2023-02-05T06:52:54.307Z,6.70
2023-02-05T06:55:22.811Z,5.97
2023-02-05T06:57:50.770Z,7.80
2023-02-05T07:00:20.043Z,8.23
2023-02-05T07:02:47.986Z,9.00
2023-02-05T07:05:17.455Z,7.82
2023-02-05T07:07:45.620Z,8.43
2023-02-05T07:10:13.595Z,7.97
2023-02-05T07:12:43.664Z,7.75
2023-02-05T07:15:11.983Z,8.50
2023-02-05T07:17:40.295Z,8.45
2023-02-05T07:20:08.955Z,8.27
2023-02-05T07:22:40.162Z,9.43
2023-02-05T07:25:08.910Z,9.77
2023-02-05T07:27:39.916Z,9.18
2023-02-05T07:30:08.922Z,9.55
2023-02-05T07:32:36.869Z,8.45
2023-02-05T07:35:06.208Z,10.23
2023-02-05T07:37:34.136Z,8.93
2023-02-05T07:40:05.006Z,10.20
2023-02-05T07:42:32.956Z,9.20
2023-02-05T07:45:00.915Z,10.48
2023-02-05T07:47:28.799Z,10.10
2023-02-05T07:49:56.756Z,9.57
2023-02-05T07:52:24.756Z,9.90
2023-02-05T07:54:52.860Z,9.93
2023-02-05T07:57:22.365Z,9.85
2023-02-05T07:59:50.591Z,10.70
2023-02-05T08:02:18.670Z,10.80
2023-02-05T08:04:46.577Z,10.48
2023-02-05T08:07:15.285Z,9.68
2023-02-05T08:09:43.433Z,10.23
2023-02-05T08:12:11.524Z,9.68
2023-02-05T08:14:40.984Z,9.93
2023-02-05T08:17:12.035Z,10.13
2023-02-05T08:19:40.333Z,10.10
2023-02-05T08:22:08.271Z,10.73
2023-02-05T08:24:36.224Z,10.00
2023-02-05T08:27:05.281Z,10.02
2023-02-05T08:29:36.264Z,9.20
2023-02-05T08:32:09.121Z,9.70
2023-02-05T08:34:38.222Z,10.13
2023-02-05T08:37:06.677Z,10.10
2023-02-05T08:39:37.584Z,11.15
2023-02-05T08:42:06.128Z,11.45
2023-02-05T08:44:39.552Z,10.77
2023-02-05T08:47:10.710Z,11.73
2023-02-05T08:49:41.789Z,10.50
2023-02-05T08:52:13.009Z,11.85
2023-02-05T08:54:41.842Z,10.85
2023-02-05T08:57:10.587Z,11.40
2023-02-05T08:59:38.945Z,10.65
2023-02-05T09:02:11.631Z,11.95
2023-02-05T09:04:40.518Z,12.63
2023-02-05T09:07:09.007Z,10.32
2023-02-05T09:09:38.495Z,11.65
2023-02-05T09:12:07.359Z,12.55
2023-02-05T09:14:37.311Z,11.60
2023-02-05T09:17:06.029Z,12.48
2023-02-05T09:19:37.846Z,11.27
2023-02-05T09:22:07.026Z,12.48
2023-02-05T09:24:35.544Z,12.93
2023-02-05T09:27:06.504Z,11.70
2023-02-05T09:29:37.770Z,12.27
2023-02-05T09:32:07.545Z,11.80
2023-02-05T09:34:37.389Z,12.10
2023-02-05T09:37:10.509Z,13.25
2023-02-05T09:42:37.719Z,11.05
2023-02-05T09:45:23.701Z,12.40
2023-02-05T09:48:01.162Z,10.95
2023-02-05T09:50:31.566Z,12.27
2023-02-05T09:53:05.872Z,11.65
2023-02-05T09:55:40.260Z,11.65
2023-02-05T09:58:12.850Z,13.10
2023-02-05T10:03:25.082Z,11.77
2023-02-05T10:06:14.369Z,11.95
2023-02-05T10:08:49.237Z,12.40
2023-02-05T10:11:23.843Z,11.98
2023-02-05T10:14:02.659Z,12.88
2023-02-05T10:17:14.137Z,13.02
2023-02-05T10:19:59.740Z,12.55
2023-02-05T10:22:38.050Z,11.93
2023-02-05T10:25:31.105Z,13.30
2023-02-05T10:28:14.836Z,12.85
2023-02-05T10:30:52.040Z,13.68
2023-02-05T10:33:29.618Z,14.10
2023-02-05T10:36:01.114Z,13.75
2023-02-05T10:38:42.257Z,9.98
2023-02-05T10:41:33.772Z,13.70
2023-02-05T10:44:12.104Z,13.93
2023-02-05T10:46:42.745Z,14.73
2023-02-05T10:49:17.858Z,14.85
2023-02-05T10:51:50.103Z,15.13
2023-02-05T10:54:25.408Z,14.70
2023-02-05T10:56:53.595Z,14.18
2023-02-05T10:59:26.987Z,14.07
2023-02-05T11:01:57.741Z,13.38
2023-02-05T11:04:34.249Z,13.95
2023-02-05T11:07:06.696Z,13.52
2023-02-05T11:09:41.326Z,13.50
2023-02-05T11:12:21.330Z,13.10
2023-02-05T11:14:58.450Z,13.40
2023-02-05T11:17:30.258Z,14.00
2023-02-05T11:20:02.357Z,13.75
2023-02-05T11:22:32.209Z,14.93
2023-02-05T11:25:17.642Z,13.85
2023-02-05T11:27:53.800Z,15.43
2023-02-05T11:30:52.283Z,13.15
2023-02-05T11:33:33.990Z,13.07
2023-02-05T11:36:04.956Z,14.30
2023-02-05T11:38:39.664Z,12.90
2023-02-05T11:41:11.033Z,14.18
2023-02-05T11:43:42.308Z,13.52
2023-02-05T11:46:18.243Z,12.48
2023-02-05T11:49:00.010Z,14.65
2023-02-05T11:51:44.869Z,9.38
2023-02-05T11:54:30.013Z,12.23
2023-02-05T11:57:09.178Z,13.63
2023-02-05T11:59:38.140Z,12.75
2023-02-05T12:02:31.229Z,13.75
2023-02-05T12:05:14.226Z,13.73
2023-02-05T12:07:52.203Z,14.45
2023-02-05T12:13:09.006Z,14.15
2023-02-05T12:15:45.473Z,14.23
2023-02-05T12:18:24.883Z,14.35
2023-02-05T12:21:13.540Z,14.10
2023-02-05T12:24:03.290Z,14.52
2023-02-05T12:26:38.338Z,14.40
2023-02-05T12:29:44.178Z,14.13
2023-02-05T12:32:29.097Z,13.77
2023-02-05T12:35:19.189Z,16.30
2023-02-05T12:38:03.925Z,16.17
2023-02-05T12:41:00.292Z,14.73
2023-02-05T12:43:44.696Z,15.00
2023-02-05T12:46:44.390Z,14.55
2023-02-05T12:49:34.850Z,13.35
2023-02-05T12:52:19.887Z,13.35
2023-02-05T12:55:13.947Z,12.45
2023-02-05T12:57:53.404Z,13.63
2023-02-05T13:00:32.166Z,12.70
2023-02-05T13:03:17.335Z,13.63
2023-02-05T13:05:51.368Z,11.38
2023-02-05T13:08:37.887Z,12.93
2023-02-05T13:11:18.412Z,13.13
2023-02-05T13:13:54.848Z,11.75
2023-02-05T13:16:35.430Z,13.30
2023-02-05T13:19:28.426Z,13.30
2023-02-05T13:22:22.945Z,12.48
2023-02-05T13:25:07.775Z,12.57
2023-02-05T13:27:57.782Z,13.30
2023-02-05T13:30:29.968Z,11.18
2023-02-05T13:33:03.177Z,13.20
2023-02-05T13:35:45.462Z,13.73
2023-02-05T13:38:42.315Z,13.38
2023-02-05T13:41:35.864Z,13.48
2023-02-05T13:44:23.319Z,13.93
2023-02-05T13:47:26.157Z,13.27
2023-02-05T13:50:37.697Z,13.65
2023-02-05T13:53:19.611Z,11.73
2023-02-05T13:56:17.346Z,12.30
2023-02-05T13:58:55.521Z,12.32
2023-02-05T14:01:29.515Z,12.35
2023-02-05T14:04:04.186Z,10.80
2023-02-05T14:06:33.931Z,12.48
2023-02-05T14:09:06.479Z,11.65
2023-02-05T14:14:31.204Z,10.43
2023-02-05T14:17:04.613Z,13.48
2023-02-05T14:20:03.687Z,12.52
2023-02-05T14:22:39.368Z,13.30
2023-02-05T14:25:42.592Z,12.27
2023-02-05T14:28:37.548Z,13.95
2023-02-05T14:31:07.543Z,12.82
2023-02-05T14:33:46.762Z,12.70
2023-02-05T14:36:37.162Z,13.38
2023-02-05T14:39:19.184Z,12.48
2023-02-05T14:41:53.273Z,12.63
2023-02-05T14:44:28.584Z,12.95
2023-02-05T14:47:06.414Z,13.88
2023-02-05T14:49:42.456Z,12.38
2023-02-05T14:52:28.402Z,14.57
2023-02-05T14:55:00.985Z,14.05
2023-02-05T14:57:35.953Z,13.98
2023-02-05T15:00:08.821Z,15.20
2023-02-05T15:03:19.656Z,13.93
2023-02-05T15:05:53.923Z,12.65
2023-02-05T15:08:27.905Z,13.77
2023-02-05T15:11:05.035Z,14.13
2023-02-05T15:13:33.904Z,13.43
2023-02-05T15:16:20.160Z,14.23
2023-02-05T15:18:50.533Z,14.60
2023-02-05T15:21:25.020Z,15.43
2023-02-05T15:23:58.859Z,12.95
2023-02-05T15:26:33.235Z,11.27
2023-02-05T15:29:05.568Z,12.75
2023-02-05T15:31:43.196Z,12.52
2023-02-05T15:34:31.511Z,13.23
2023-02-05T15:37:06.376Z,15.07
2023-02-05T15:39:45.834Z,14.05
2023-02-05T15:42:20.192Z,15.02
2023-02-05T15:44:59.198Z,15.20
2023-02-05T15:47:36.557Z,13.48
2023-02-05T15:50:08.462Z,13.32
2023-02-05T15:52:37.284Z,14.27
2023-02-05T15:55:16.428Z,14.20
2023-02-05T15:57:46.542Z,13.55
2023-02-05T16:00:22.663Z,13.27
2023-02-05T16:03:11.373Z,11.18
2023-02-05T16:05:52.452Z,11.68
2023-02-05T16:08:23.841Z,12.32
2023-02-05T16:11:11.089Z,10.23
2023-02-05T16:13:42.195Z,9.95
2023-02-05T16:16:25.364Z,10.40
2023-02-05T16:19:02.016Z,9.10
2023-02-05T16:21:34.999Z,12.15
2023-02-05T16:24:12.082Z,10.75
2023-02-05T16:26:46.914Z,9.77
2023-02-05T16:29:26.854Z,11.52
2023-02-05T16:32:06.078Z,8.85
2023-02-05T16:34:40.725Z,8.15
2023-02-05T16:37:13.733Z,7.43
2023-02-05T16:39:52.156Z,7.38
2023-02-05T16:42:38.713Z,8.40
2023-02-05T16:45:21.455Z,9.13
2023-02-05T16:50:44.196Z,6.55
2023-02-05T16:53:21.832Z,7.47
2023-02-05T16:55:51.021Z,7.78
2023-02-05T16:58:31.616Z,10.05
2023-02-05T17:01:05.578Z,9.85
2023-02-05T17:03:40.993Z,10.33
2023-02-05T17:06:15.109Z,9.75
2023-02-05T17:08:46.619Z,10.38
2023-02-05T17:11:33.649Z,12.38
2023-02-05T17:14:23.334Z,11.23
2023-02-05T17:17:02.878Z,9.65
2023-02-05T17:19:32.664Z,10.45
2023-02-05T17:22:21.725Z,8.60
2023-02-05T17:24:51.881Z,9.25
2023-02-05T17:27:25.898Z,8.85
2023-02-05T17:29:56.191Z,8.30
2023-02-05T17:32:24.892Z,8.05
2023-02-05T17:34:55.993Z,8.82
2023-02-05T17:37:25.367Z,9.95
2023-02-05T17:39:53.708Z,10.07
2023-02-05T17:42:25.507Z,10.05
2023-02-05T17:44:59.691Z,10.85
2023-02-05T17:47:27.669Z,10.40
2023-02-05T17:49:55.709Z,11.80
2023-02-05T17:52:25.718Z,12.20
2023-02-05T17:54:55.223Z,10.27
2023-02-05T17:57:24.076Z,10.70
2023-02-05T17:59:52.411Z,9.63
2023-02-05T18:02:21.817Z,10.07
2023-02-05T18:04:49.951Z,9.80
2023-02-05T18:07:30.529Z,11.07
2023-02-05T18:10:00.429Z,10.50
2023-02-05T18:12:30.375Z,9.43
2023-02-05T18:15:01.376Z,9.85
2023-02-05T18:17:29.452Z,10.63
2023-02-05T18:19:57.681Z,10.15
2023-02-05T18:22:25.790Z,8.77
2023-02-05T18:24:55.784Z,7.78
2023-02-05T18:27:25.903Z,8.95
2023-02-05T18:29:55.567Z,10.05
2023-02-05T18:32:24.716Z,9.18
2023-02-05T18:34:52.986Z,9.50
2023-02-05T18:37:21.076Z,8.70
2023-02-05T18:39:49.142Z,9.00
2023-02-05T18:42:17.244Z,10.88
2023-02-05T18:44:48.667Z,10.48
2023-02-05T18:47:16.774Z,9.38
2023-02-05T18:49:44.724Z,10.10
2023-02-05T18:52:14.394Z,8.95
2023-02-05T18:54:44.024Z,8.88
2023-02-05T18:57:12.694Z,9.73
2023-02-05T18:59:41.640Z,9.35
2023-02-05T19:02:12.950Z,9.80
2023-02-05T19:04:42.565Z,8.30
2023-02-05T19:07:15.418Z,8.32
2023-02-05T19:09:47.390Z,9.48
2023-02-05T19:12:16.106Z,9.25
2023-02-05T19:14:44.664Z,7.97
2023-02-05T19:17:16.176Z,8.57
2023-02-05T19:19:46.934Z,7.90
2023-02-05T19:22:15.205Z,8.27
2023-02-05T19:24:46.214Z,7.72
2023-02-05T19:27:20.043Z,8.20
2023-02-05T19:29:48.655Z,7.90
2023-02-05T19:32:19.685Z,7.80
2023-02-05T19:34:48.060Z,8.23
2023-02-05T19:37:17.891Z,7.82
2023-02-05T19:39:49.345Z,6.93
2023-02-05T19:42:19.895Z,9.13
2023-02-05T19:44:57.302Z,8.50
2023-02-05T19:47:31.852Z,7.00
2023-02-05T19:50:02.318Z,8.48
2023-02-05T19:52:33.595Z,8.57
2023-02-05T19:55:05.029Z,7.93
2023-02-05T19:57:35.134Z,7.93
2023-02-05T20:00:06.376Z,8.75
2023-02-05T20:02:41.782Z,7.28
2023-02-05T20:05:14.148Z,7.35
2023-02-05T20:07:44.833Z,6.35
2023-02-05T20:10:17.421Z,7.32
2023-02-05T20:15:19.681Z,7.47
2023-02-05T20:17:51.453Z,6.65
2023-02-05T20:20:32.830Z,7.45
2023-02-05T20:23:02.109Z,5.65
2023-02-05T20:25:35.318Z,6.72
2023-02-05T20:28:03.859Z,6.55
2023-02-05T20:30:50.225Z,6.78
2023-02-05T20:33:22.349Z,6.30
2023-02-05T20:35:53.262Z,6.63
2023-02-05T20:38:21.654Z,5.57
2023-02-05T20:40:58.594Z,6.22
2023-02-05T20:43:27.484Z,4.50
2023-02-05T20:46:04.421Z,4.95
2023-02-05T20:48:34.623Z,5.97
2023-02-05T20:51:14.511Z,5.78
2023-02-05T20:53:48.181Z,5.88
2023-02-05T20:56:22.847Z,5.80
2023-02-05T20:58:51.397Z,6.53
2023-02-05T21:01:26.016Z,5.68
2023-02-05T21:03:59.155Z,5.82
2023-02-05T21:06:29.447Z,5.60
2023-02-05T21:09:02.012Z,5.82
2023-02-05T21:11:35.323Z,5.43
2023-02-05T21:14:05.799Z,4.80
2023-02-05T21:16:36.462Z,5.38
2023-02-05T21:19:12.347Z,5.38
2023-02-05T21:21:47.473Z,5.70
2023-02-05T21:24:18.118Z,6.28
2023-02-05T21:26:48.225Z,5.72
2023-02-05T21:29:20.392Z,5.75
2023-02-05T21:31:52.110Z,5.80
2023-02-05T21:34:24.455Z,5.82
2023-02-05T21:36:54.126Z,5.85
2023-02-05T21:39:28.776Z,5.22
2023-02-05T21:41:59.924Z,5.90
2023-02-05T21:44:30.637Z,6.03
2023-02-05T21:47:00.822Z,6.00
2023-02-05T21:49:33.228Z,6.22
2023-02-05T21:54:34.323Z,5.95
2023-02-05T21:57:05.992Z,6.00
2023-02-05T21:59:35.806Z,6.25
2023-02-05T22:02:10.635Z,6.05
2023-02-05T22:04:46.381Z,4.95
2023-02-05T22:07:17.773Z,5.03
2023-02-05T22:09:49.545Z,4.47
2023-02-05T22:12:18.246Z,4.30
2023-02-05T22:14:54.866Z,4.50
2023-02-05T22:17:29.962Z,5.82
2023-02-05T22:19:59.983Z,5.10
2023-02-05T22:22:32.773Z,5.80
2023-02-05T22:25:06.443Z,5.32
2023-02-05T22:27:39.749Z,3.53
2023-02-05T22:30:15.594Z,4.30
2023-02-05T22:32:49.084Z,4.75
2023-02-05T22:35:21.659Z,5.00
2023-02-05T22:37:50.445Z,5.32
2023-02-05T22:40:19.081Z,5.32
2023-02-05T22:42:48.585Z,5.00
2023-02-05T22:45:17.139Z,5.95
2023-02-05T22:47:47.892Z,5.22
2023-02-05T22:50:19.888Z,5.70
2023-02-05T22:52:48.180Z,4.93
2023-02-05T22:55:16.749Z,5.60
2023-02-05T22:57:50.239Z,6.00
2023-02-05T23:00:22.451Z,5.60
2023-02-05T23:02:53.289Z,5.20
2023-02-05T23:05:32.666Z,5.50
2023-02-05T23:08:01.818Z,6.68
2023-02-05T23:10:32.526Z,5.68
2023-02-05T23:13:07.187Z,6.18
2023-02-05T23:15:40.149Z,5.80
2023-02-05T23:18:08.602Z,6.65
2023-02-05T23:20:43.058Z,7.85
2023-02-05T23:23:17.283Z,7.28
2023-02-05T23:25:57.308Z,7.88
2023-02-05T23:28:29.906Z,6.85
2023-02-05T23:31:02.792Z,7.28
2023-02-05T23:33:31.658Z,7.80
2023-02-05T23:36:04.730Z,8.57
2023-02-05T23:38:34.265Z,6.63
2023-02-05T23:41:06.182Z,6.25
2023-02-05T23:43:37.104Z,3.88
2023-02-05T23:46:06.782Z,5.60
2023-02-05T23:48:35.252Z,5.07
2023-02-05T23:51:04.721Z,5.65
2023-02-05T23:53:32.645Z,4.95
2023-02-05T23:56:01.656Z,4.88
2023-02-05T23:58:29.970Z,4.30
